sensor_id;sensor_type;location;lat;lon;timestamp;P1;durP1;ratioP1;P2;durP2;ratioP2
21202;SDS011;10759;51.982;9.232;2023-03-23T00:00:22;3.00;;;2.67;;
21202;SDS011;10759;51.982;9.232;2023-03-23T00:02:49;2.85;;;2.47;;
21202;SDS011;10759;51.982;9.232;2023-03-23T00:05:15;3.38;;;2.60;;
21202;SDS011;10759;51.982;9.232;2023-03-23T00:07:42;2.75;;;2.55;;
21202;SDS011;10759;51.982;9.232;2023-03-23T00:10:10;3.55;;;2.53;;
21202;SDS011;10759;51.982;9.232;2023-03-23T00:12:38;4.97;;;2.10;;
21202;SDS011;10759;51.982;9.232;2023-03-23T00:15:08;3.03;;;2.50;;
21202;SDS011;10759;51.982;9.232;2023-03-23T00:17:38;3.67;;;2.50;;
21202;SDS011;10759;51.982;9.232;2023-03-23T00:20:06;3.35;;;2.28;;
21202;SDS011;10759;51.982;9.232;2023-03-23T00:22:35;3.35;;;2.38;;
21202;SDS011;10759;51.982;9.232;2023-03-23T00:25:03;3.75;;;2.17;;
21202;SDS011;10759;51.982;9.232;2023-03-23T00:27:30;3.75;;;2.28;;
21202;SDS011;10759;51.982;9.232;2023-03-23T00:29:59;3.70;;;1.95;;
21202;SDS011;10759;51.982;9.232;2023-03-23T00:32:26;3.15;;;2.22;;
21202;SDS011;10759;51.982;9.232;2023-03-23T00:34:54;3.55;;;2.40;;
21202;SDS011;10759;51.982;9.232;2023-03-23T00:37:21;3.05;;;2.15;;
21202;SDS011;10759;51.982;9.232;2023-03-23T00:39:49;2.97;;;2.05;;
21202;SDS011;10759;51.982;9.232;2023-03-23T00:42:17;4.57;;;2.47;;
21202;SDS011;10759;51.982;9.232;2023-03-23T00:44:44;4.38;;;2.63;;
21202;SDS011;10759;51.982;9.232;2023-03-23T00:47:12;3.13;;;2.83;;
21202;SDS011;10759;51.982;9.232;2023-03-23T00:49:41;3.53;;;2.13;;
21202;SDS011;10759;51.982;9.232;2023-03-23T00:52:09;3.75;;;2.55;;
21202;SDS011;10759;51.982;9.232;2023-03-23T00:54:35;3.17;;;2.00;;
21202;SDS011;10759;51.982;9.232;2023-03-23T00:57:03;3.45;;;2.22;;
21202;SDS011;10759;51.982;9.232;2023-03-23T00:59:31;2.75;;;2.17;;
21202;SDS011;10759;51.982;9.232;2023-03-23T01:01:58;2.75;;;2.22;;
21202;SDS011;10759;51.982;9.232;2023-03-23T01:04:26;2.40;;;2.20;;
21202;SDS011;10759;51.982;9.232;2023-03-23T01:06:56;2.78;;;2.00;;
21202;SDS011;10759;51.982;9.232;2023-03-23T01:09:25;3.90;;;2.25;;
21202;SDS011;10759;51.982;9.232;2023-03-23T01:11:53;2.53;;;2.25;;
21202;SDS011;10759;51.982;9.232;2023-03-23T01:14:20;3.55;;;2.67;;
21202;SDS011;10759;51.982;9.232;2023-03-23T01:16:49;5.93;;;2.72;;
21202;SDS011;10759;51.982;9.232;2023-03-23T01:19:16;2.78;;;2.20;;
21202;SDS011;10759;51.982;9.232;2023-03-23T01:21:44;4.00;;;2.35;;
21202;SDS011;10759;51.982;9.232;2023-03-23T01:24:11;3.50;;;2.55;;
21202;SDS011;10759;51.982;9.232;2023-03-23T01:26:37;5.05;;;3.00;;
21202;SDS011;10759;51.982;9.232;2023-03-23T01:29:04;4.32;;;2.80;;
21202;SDS011;10759;51.982;9.232;2023-03-23T01:31:31;3.78;;;2.63;;
21202;SDS011;10759;51.982;9.232;2023-03-23T01:33:58;3.85;;;3.15;;
21202;SDS011;10759;51.982;9.232;2023-03-23T01:36:26;3.53;;;3.03;;
21202;SDS011;10759;51.982;9.232;2023-03-23T01:39:02;4.90;;;2.97;;
21202;SDS011;10759;51.982;9.232;2023-03-23T01:41:32;4.28;;;3.00;;
21202;SDS011;10759;51.982;9.232;2023-03-23T01:44:04;4.85;;;2.85;;
21202;SDS011;10759;51.982;9.232;2023-03-23T01:46:44;4.28;;;2.60;;
21202;SDS011;10759;51.982;9.232;2023-03-23T01:49:12;5.45;;;3.00;;
21202;SDS011;10759;51.982;9.232;2023-03-23T01:51:43;2.92;;;2.30;;
21202;SDS011;10759;51.982;9.232;2023-03-23T01:54:16;6.45;;;3.10;;
21202;SDS011;10759;51.982;9.232;2023-03-23T01:56:47;4.07;;;2.28;;
21202;SDS011;10759;51.982;9.232;2023-03-23T01:59:17;3.38;;;2.97;;
21202;SDS011;10759;51.982;9.232;2023-03-23T02:01:53;2.63;;;2.40;;
21202;SDS011;10759;51.982;9.232;2023-03-23T02:04:21;2.60;;;2.40;;
21202;SDS011;10759;51.982;9.232;2023-03-23T02:06:49;5.53;;;2.60;;
21202;SDS011;10759;51.982;9.232;2023-03-23T02:09:21;4.80;;;2.55;;
21202;SDS011;10759;51.982;9.232;2023-03-23T02:11:49;4.50;;;2.92;;
21202;SDS011;10759;51.982;9.232;2023-03-23T02:14:17;2.85;;;2.50;;
21202;SDS011;10759;51.982;9.232;2023-03-23T02:16:46;4.72;;;2.75;;
21202;SDS011;10759;51.982;9.232;2023-03-23T02:19:24;5.25;;;2.72;;
21202;SDS011;10759;51.982;9.232;2023-03-23T02:22:13;3.97;;;2.28;;
21202;SDS011;10759;51.982;9.232;2023-03-23T02:25:08;3.78;;;2.42;;
21202;SDS011;10759;51.982;9.232;2023-03-23T02:28:01;3.80;;;2.63;;
21202;SDS011;10759;51.982;9.232;2023-03-23T02:30:48;3.20;;;2.83;;
21202;SDS011;10759;51.982;9.232;2023-03-23T02:36:19;3.30;;;2.58;;
21202;SDS011;10759;51.982;9.232;2023-03-23T02:38:55;2.83;;;2.45;;
21202;SDS011;10759;51.982;9.232;2023-03-23T02:41:28;3.38;;;3.03;;
21202;SDS011;10759;51.982;9.232;2023-03-23T02:43:58;4.53;;;3.10;;
21202;SDS011;10759;51.982;9.232;2023-03-23T02:46:28;2.85;;;2.60;;
21202;SDS011;10759;51.982;9.232;2023-03-23T02:48:58;5.47;;;3.33;;
21202;SDS011;10759;51.982;9.232;2023-03-23T02:51:26;3.73;;;2.93;;
21202;SDS011;10759;51.982;9.232;2023-03-23T02:53:54;4.22;;;3.22;;
21202;SDS011;10759;51.982;9.232;2023-03-23T02:56:23;4.35;;;3.20;;
21202;SDS011;10759;51.982;9.232;2023-03-23T02:58:54;4.25;;;3.65;;
21202;SDS011;10759;51.982;9.232;2023-03-23T03:04:26;6.90;;;3.67;;
21202;SDS011;10759;51.982;9.232;2023-03-23T03:07:07;3.38;;;3.08;;
21202;SDS011;10759;51.982;9.232;2023-03-23T03:09:50;5.18;;;3.60;;
21202;SDS011;10759;51.982;9.232;2023-03-23T03:12:24;3.88;;;2.60;;
21202;SDS011;10759;51.982;9.232;2023-03-23T03:14:58;3.33;;;2.92;;
21202;SDS011;10759;51.982;9.232;2023-03-23T03:17:33;3.17;;;2.50;;
21202;SDS011;10759;51.982;9.232;2023-03-23T03:20:07;4.82;;;3.50;;
21202;SDS011;10759;51.982;9.232;2023-03-23T03:22:38;3.30;;;3.00;;
21202;SDS011;10759;51.982;9.232;2023-03-23T03:25:08;3.35;;;3.05;;
21202;SDS011;10759;51.982;9.232;2023-03-23T03:27:39;3.17;;;2.85;;
21202;SDS011;10759;51.982;9.232;2023-03-23T03:30:15;4.50;;;3.08;;
21202;SDS011;10759;51.982;9.232;2023-03-23T03:32:47;3.03;;;2.83;;
21202;SDS011;10759;51.982;9.232;2023-03-23T03:35:18;4.40;;;2.87;;
21202;SDS011;10759;51.982;9.232;2023-03-23T03:37:45;3.97;;;3.10;;
21202;SDS011;10759;51.982;9.232;2023-03-23T03:40:13;2.80;;;2.50;;
21202;SDS011;10759;51.982;9.232;2023-03-23T03:42:43;4.28;;;3.88;;
21202;SDS011;10759;51.982;9.232;2023-03-23T03:45:11;3.30;;;3.00;;
21202;SDS011;10759;51.982;9.232;2023-03-23T03:47:40;3.75;;;3.20;;
21202;SDS011;10759;51.982;9.232;2023-03-23T03:50:07;4.63;;;3.08;;
21202;SDS011;10759;51.982;9.232;2023-03-23T03:52:36;3.00;;;2.80;;
21202;SDS011;10759;51.982;9.232;2023-03-23T03:55:06;3.30;;;2.58;;
21202;SDS011;10759;51.982;9.232;2023-03-23T03:57:37;3.00;;;2.50;;
21202;SDS011;10759;51.982;9.232;2023-03-23T04:00:04;3.97;;;2.60;;
21202;SDS011;10759;51.982;9.232;2023-03-23T04:02:40;2.35;;;2.22;;
21202;SDS011;10759;51.982;9.232;2023-03-23T04:05:09;3.40;;;2.50;;
21202;SDS011;10759;51.982;9.232;2023-03-23T04:07:39;2.70;;;1.98;;
21202;SDS011;10759;51.982;9.232;2023-03-23T04:10:07;2.50;;;1.98;;
21202;SDS011;10759;51.982;9.232;2023-03-23T04:12:36;2.53;;;2.33;;
21202;SDS011;10759;51.982;9.232;2023-03-23T04:15:22;2.40;;;1.95;;
21202;SDS011;10759;51.982;9.232;2023-03-23T04:17:50;4.18;;;2.00;;
21202;SDS011;10759;51.982;9.232;2023-03-23T04:20:16;3.95;;;2.00;;
21202;SDS011;10759;51.982;9.232;2023-03-23T04:22:49;2.75;;;2.08;;
21202;SDS011;10759;51.982;9.232;2023-03-23T04:25:18;3.17;;;2.00;;
21202;SDS011;10759;51.982;9.232;2023-03-23T04:27:49;2.92;;;2.30;;
21202;SDS011;10759;51.982;9.232;2023-03-23T04:30:23;2.72;;;2.30;;
21202;SDS011;10759;51.982;9.232;2023-03-23T04:33:06;2.78;;;1.75;;
21202;SDS011;10759;51.982;9.232;2023-03-23T04:35:34;3.35;;;1.70;;
21202;SDS011;10759;51.982;9.232;2023-03-23T04:38:30;2.72;;;1.80;;
21202;SDS011;10759;51.982;9.232;2023-03-23T04:41:04;2.55;;;1.50;;
21202;SDS011;10759;51.982;9.232;2023-03-23T04:43:40;1.80;;;1.52;;
21202;SDS011;10759;51.982;9.232;2023-03-23T04:46:29;2.75;;;1.80;;
21202;SDS011;10759;51.982;9.232;2023-03-23T04:49:02;2.78;;;1.55;;
21202;SDS011;10759;51.982;9.232;2023-03-23T04:51:34;4.43;;;1.50;;
21202;SDS011;10759;51.982;9.232;2023-03-23T04:54:17;1.48;;;1.38;;
21202;SDS011;10759;51.982;9.232;2023-03-23T04:56:48;1.63;;;1.48;;
21202;SDS011;10759;51.982;9.232;2023-03-23T04:59:15;1.30;;;1.20;;
21202;SDS011;10759;51.982;9.232;2023-03-23T05:01:49;1.95;;;1.30;;
21202;SDS011;10759;51.982;9.232;2023-03-23T05:04:18;2.50;;;1.60;;
21202;SDS011;10759;51.982;9.232;2023-03-23T05:07:08;1.58;;;1.25;;
21202;SDS011;10759;51.982;9.232;2023-03-23T05:09:47;1.58;;;1.40;;
21202;SDS011;10759;51.982;9.232;2023-03-23T05:12:19;2.70;;;1.70;;
21202;SDS011;10759;51.982;9.232;2023-03-23T05:14:51;2.20;;;1.40;;
21202;SDS011;10759;51.982;9.232;2023-03-23T05:17:21;2.35;;;1.60;;
21202;SDS011;10759;51.982;9.232;2023-03-23T05:19:51;3.10;;;2.85;;
21202;SDS011;10759;51.982;9.232;2023-03-23T05:22:37;1.70;;;1.52;;
21202;SDS011;10759;51.982;9.232;2023-03-23T05:25:07;2.20;;;1.95;;
21202;SDS011;10759;51.982;9.232;2023-03-23T05:27:38;2.97;;;1.85;;
21202;SDS011;10759;51.982;9.232;2023-03-23T05:30:20;1.98;;;1.60;;
21202;SDS011;10759;51.982;9.232;2023-03-23T05:32:47;1.60;;;1.45;;
21202;SDS011;10759;51.982;9.232;2023-03-23T05:35:28;2.38;;;1.63;;
21202;SDS011;10759;51.982;9.232;2023-03-23T05:37:55;1.90;;;1.77;;
21202;SDS011;10759;51.982;9.232;2023-03-23T05:40:25;1.50;;;1.40;;
21202;SDS011;10759;51.982;9.232;2023-03-23T05:43:09;2.45;;;1.65;;
21202;SDS011;10759;51.982;9.232;2023-03-23T05:46:02;3.63;;;1.52;;
21202;SDS011;10759;51.982;9.232;2023-03-23T05:48:30;2.75;;;1.60;;
21202;SDS011;10759;51.982;9.232;2023-03-23T05:50:58;2.00;;;1.70;;
21202;SDS011;10759;51.982;9.232;2023-03-23T05:53:26;2.00;;;1.48;;
21202;SDS011;10759;51.982;9.232;2023-03-23T05:55:59;1.48;;;1.38;;
21202;SDS011;10759;51.982;9.232;2023-03-23T05:58:42;1.60;;;1.50;;
21202;SDS011;10759;51.982;9.232;2023-03-23T06:01:09;1.77;;;1.52;;
21202;SDS011;10759;51.982;9.232;2023-03-23T06:03:38;1.75;;;1.63;;
21202;SDS011;10759;51.982;9.232;2023-03-23T06:06:15;2.28;;;1.65;;
21202;SDS011;10759;51.982;9.232;2023-03-23T06:08:53;2.58;;;1.67;;
21202;SDS011;10759;51.982;9.232;2023-03-23T06:11:34;2.33;;;1.95;;
21202;SDS011;10759;51.982;9.232;2023-03-23T06:14:34;3.03;;;1.42;;
21202;SDS011;10759;51.982;9.232;2023-03-23T06:17:01;2.28;;;1.55;;
21202;SDS011;10759;51.982;9.232;2023-03-23T06:19:27;1.65;;;1.52;;
21202;SDS011;10759;51.982;9.232;2023-03-23T06:22:05;2.15;;;1.85;;
21202;SDS011;10759;51.982;9.232;2023-03-23T06:24:50;1.30;;;1.20;;
21202;SDS011;10759;51.982;9.232;2023-03-23T06:27:24;1.98;;;1.88;;
21202;SDS011;10759;51.982;9.232;2023-03-23T06:29:52;1.70;;;1.60;;
21202;SDS011;10759;51.982;9.232;2023-03-23T06:32:22;1.92;;;1.63;;
21202;SDS011;10759;51.982;9.232;2023-03-23T06:34:51;2.13;;;1.30;;
21202;SDS011;10759;51.982;9.232;2023-03-23T06:37:21;1.70;;;1.52;;
21202;SDS011;10759;51.982;9.232;2023-03-23T06:40:00;2.55;;;1.60;;
21202;SDS011;10759;51.982;9.232;2023-03-23T06:42:36;1.42;;;1.33;;
21202;SDS011;10759;51.982;9.232;2023-03-23T06:45:29;2.60;;;1.67;;
21202;SDS011;10759;51.982;9.232;2023-03-23T06:48:15;1.92;;;1.63;;
21202;SDS011;10759;51.982;9.232;2023-03-23T06:50:43;2.10;;;1.50;;
21202;SDS011;10759;51.982;9.232;2023-03-23T06:53:11;1.70;;;1.60;;
21202;SDS011;10759;51.982;9.232;2023-03-23T06:55:39;4.03;;;1.70;;
21202;SDS011;10759;51.982;9.232;2023-03-23T06:58:09;1.60;;;1.50;;
21202;SDS011;10759;51.982;9.232;2023-03-23T07:00:36;3.05;;;1.60;;
21202;SDS011;10759;51.982;9.232;2023-03-23T07:03:05;1.92;;;1.73;;
21202;SDS011;10759;51.982;9.232;2023-03-23T07:05:32;1.63;;;1.52;;
21202;SDS011;10759;51.982;9.232;2023-03-23T07:08:00;1.52;;;1.42;;
21202;SDS011;10759;51.982;9.232;2023-03-23T07:10:36;1.70;;;1.60;;
21202;SDS011;10759;51.982;9.232;2023-03-23T07:13:05;4.95;;;1.80;;
21202;SDS011;10759;51.982;9.232;2023-03-23T07:15:44;2.00;;;1.80;;
21202;SDS011;10759;51.982;9.232;2023-03-23T07:18:11;2.13;;;1.75;;
21202;SDS011;10759;51.982;9.232;2023-03-23T07:20:46;1.50;;;1.40;;
21202;SDS011;10759;51.982;9.232;2023-03-23T07:23:14;1.70;;;1.60;;
21202;SDS011;10759;51.982;9.232;2023-03-23T07:25:46;1.90;;;1.80;;
21202;SDS011;10759;51.982;9.232;2023-03-23T07:28:19;2.00;;;1.80;;
21202;SDS011;10759;51.982;9.232;2023-03-23T07:30:49;2.17;;;1.70;;
21202;SDS011;10759;51.982;9.232;2023-03-23T07:33:16;2.42;;;2.00;;
21202;SDS011;10759;51.982;9.232;2023-03-23T07:35:44;1.90;;;1.80;;
21202;SDS011;10759;51.982;9.232;2023-03-23T07:38:15;2.30;;;2.10;;
21202;SDS011;10759;51.982;9.232;2023-03-23T07:40:46;2.38;;;1.83;;
21202;SDS011;10759;51.982;9.232;2023-03-23T07:43:16;2.30;;;1.90;;
21202;SDS011;10759;51.982;9.232;2023-03-23T07:45:53;1.92;;;1.73;;
21202;SDS011;10759;51.982;9.232;2023-03-23T07:48:24;2.55;;;2.03;;
21202;SDS011;10759;51.982;9.232;2023-03-23T07:50:52;1.92;;;1.70;;
21202;SDS011;10759;51.982;9.232;2023-03-23T07:53:20;4.68;;;2.20;;
21202;SDS011;10759;51.982;9.232;2023-03-23T07:55:59;1.80;;;1.70;;
21202;SDS011;10759;51.982;9.232;2023-03-23T07:59:06;3.10;;;2.08;;
21202;SDS011;10759;51.982;9.232;2023-03-23T08:01:38;2.28;;;2.05;;
21202;SDS011;10759;51.982;9.232;2023-03-23T08:04:28;1.90;;;1.80;;
21202;SDS011;10759;51.982;9.232;2023-03-23T08:07:07;2.95;;;1.92;;
21202;SDS011;10759;51.982;9.232;2023-03-23T08:09:55;4.20;;;2.20;;
21202;SDS011;10759;51.982;9.232;2023-03-23T08:12:32;2.50;;;1.80;;
21202;SDS011;10759;51.982;9.232;2023-03-23T08:15:34;3.08;;;2.22;;
21202;SDS011;10759;51.982;9.232;2023-03-23T08:18:07;2.40;;;2.03;;
21202;SDS011;10759;51.982;9.232;2023-03-23T08:20:52;3.80;;;2.30;;
21202;SDS011;10759;51.982;9.232;2023-03-23T08:23:29;3.80;;;2.22;;
21202;SDS011;10759;51.982;9.232;2023-03-23T08:26:16;3.08;;;2.35;;
21202;SDS011;10759;51.982;9.232;2023-03-23T08:28:54;3.60;;;2.58;;
21202;SDS011;10759;51.982;9.232;2023-03-23T08:31:39;3.33;;;2.20;;
21202;SDS011;10759;51.982;9.232;2023-03-23T08:34:19;3.00;;;1.88;;
21202;SDS011;10759;51.982;9.232;2023-03-23T08:37:06;5.53;;;2.15;;
21202;SDS011;10759;51.982;9.232;2023-03-23T08:40:00;3.00;;;1.90;;
21202;SDS011;10759;51.982;9.232;2023-03-23T08:43:01;6.47;;;2.40;;
21202;SDS011;10759;51.982;9.232;2023-03-23T08:45:32;5.38;;;2.00;;
21202;SDS011;10759;51.982;9.232;2023-03-23T08:48:14;4.65;;;2.47;;
21202;SDS011;10759;51.982;9.232;2023-03-23T08:51:01;2.92;;;2.08;;
21202;SDS011;10759;51.982;9.232;2023-03-23T08:53:46;3.95;;;2.28;;
21202;SDS011;10759;51.982;9.232;2023-03-23T08:56:13;5.82;;;2.33;;
21202;SDS011;10759;51.982;9.232;2023-03-23T08:58:59;4.35;;;2.20;;
21202;SDS011;10759;51.982;9.232;2023-03-23T09:01:34;3.20;;;2.33;;
21202;SDS011;10759;51.982;9.232;2023-03-23T09:04:21;3.10;;;2.25;;
21202;SDS011;10759;51.982;9.232;2023-03-23T09:07:09;6.13;;;2.03;;
21202;SDS011;10759;51.982;9.232;2023-03-23T09:09:37;4.72;;;2.25;;
21202;SDS011;10759;51.982;9.232;2023-03-23T09:12:05;4.63;;;2.00;;
21202;SDS011;10759;51.982;9.232;2023-03-23T09:14:33;4.80;;;2.28;;
21202;SDS011;10759;51.982;9.232;2023-03-23T09:17:01;5.00;;;2.47;;
21202;SDS011;10759;51.982;9.232;2023-03-23T09:19:29;7.15;;;2.72;;
21202;SDS011;10759;51.982;9.232;2023-03-23T09:21:56;6.07;;;2.33;;
21202;SDS011;10759;51.982;9.232;2023-03-23T09:24:24;5.43;;;2.67;;
21202;SDS011;10759;51.982;9.232;2023-03-23T09:26:51;4.18;;;2.22;;
21202;SDS011;10759;51.982;9.232;2023-03-23T09:29:18;4.68;;;2.40;;
21202;SDS011;10759;51.982;9.232;2023-03-23T09:31:46;3.08;;;2.08;;
21202;SDS011;10759;51.982;9.232;2023-03-23T09:34:13;6.50;;;2.33;;
21202;SDS011;10759;51.982;9.232;2023-03-23T09:36:42;4.22;;;2.40;;
21202;SDS011;10759;51.982;9.232;2023-03-23T09:39:09;5.38;;;2.17;;
21202;SDS011;10759;51.982;9.232;2023-03-23T09:41:42;3.90;;;2.33;;
21202;SDS011;10759;51.982;9.232;2023-03-23T09:44:22;3.97;;;2.75;;
21202;SDS011;10759;51.982;9.232;2023-03-23T09:46:58;7.00;;;2.72;;
21202;SDS011;10759;51.982;9.232;2023-03-23T09:49:31;5.43;;;2.00;;
21202;SDS011;10759;51.982;9.232;2023-03-23T09:52:03;4.97;;;2.58;;
21202;SDS011;10759;51.982;9.232;2023-03-23T09:54:35;5.30;;;2.28;;
21202;SDS011;10759;51.982;9.232;2023-03-23T09:57:15;5.20;;;2.20;;
21202;SDS011;10759;51.982;9.232;2023-03-23T09:59:49;4.90;;;2.80;;
21202;SDS011;10759;51.982;9.232;2023-03-23T10:02:21;5.32;;;2.17;;
21202;SDS011;10759;51.982;9.232;2023-03-23T10:04:54;4.93;;;2.75;;
21202;SDS011;10759;51.982;9.232;2023-03-23T10:07:26;4.10;;;2.05;;
21202;SDS011;10759;51.982;9.232;2023-03-23T10:09:54;4.88;;;2.15;;
21202;SDS011;10759;51.982;9.232;2023-03-23T10:12:27;3.95;;;2.05;;
21202;SDS011;10759;51.982;9.232;2023-03-23T10:17:44;5.05;;;1.90;;
21202;SDS011;10759;51.982;9.232;2023-03-23T10:20:20;3.22;;;1.90;;
21202;SDS011;10759;51.982;9.232;2023-03-23T10:22:56;3.53;;;2.00;;
21202;SDS011;10759;51.982;9.232;2023-03-23T10:25:29;3.88;;;2.35;;
21202;SDS011;10759;51.982;9.232;2023-03-23T10:28:01;3.78;;;2.05;;
21202;SDS011;10759;51.982;9.232;2023-03-23T10:30:34;3.83;;;1.80;;
21202;SDS011;10759;51.982;9.232;2023-03-23T10:33:08;4.72;;;2.30;;
21202;SDS011;10759;51.982;9.232;2023-03-23T10:35:40;5.13;;;2.30;;
21202;SDS011;10759;51.982;9.232;2023-03-23T10:38:11;6.28;;;2.50;;
21202;SDS011;10759;51.982;9.232;2023-03-23T10:40:44;4.45;;;2.38;;
21202;SDS011;10759;51.982;9.232;2023-03-23T10:43:16;5.55;;;2.00;;
21202;SDS011;10759;51.982;9.232;2023-03-23T10:45:43;6.60;;;2.45;;
21202;SDS011;10759;51.982;9.232;2023-03-23T10:48:14;3.83;;;2.25;;
21202;SDS011;10759;51.982;9.232;2023-03-23T10:50:45;6.35;;;2.30;;
21202;SDS011;10759;51.982;9.232;2023-03-23T10:53:16;5.85;;;2.35;;
21202;SDS011;10759;51.982;9.232;2023-03-23T10:55:47;3.40;;;1.95;;
21202;SDS011;10759;51.982;9.232;2023-03-23T10:58:23;5.70;;;2.58;;
21202;SDS011;10759;51.982;9.232;2023-03-23T11:00:54;5.05;;;2.03;;
21202;SDS011;10759;51.982;9.232;2023-03-23T11:03:33;3.72;;;2.10;;
21202;SDS011;10759;51.982;9.232;2023-03-23T11:06:06;6.85;;;2.80;;
21202;SDS011;10759;51.982;9.232;2023-03-23T11:08:38;5.50;;;2.20;;
21202;SDS011;10759;51.982;9.232;2023-03-23T11:11:15;3.90;;;2.13;;
21202;SDS011;10759;51.982;9.232;2023-03-23T11:13:45;5.50;;;2.40;;
21202;SDS011;10759;51.982;9.232;2023-03-23T11:16:24;5.18;;;2.20;;
21202;SDS011;10759;51.982;9.232;2023-03-23T11:18:53;3.80;;;1.95;;
21202;SDS011;10759;51.982;9.232;2023-03-23T11:21:20;6.43;;;2.50;;
21202;SDS011;10759;51.982;9.232;2023-03-23T11:23:50;3.25;;;2.20;;
21202;SDS011;10759;51.982;9.232;2023-03-23T11:26:21;5.60;;;3.05;;
21202;SDS011;10759;51.982;9.232;2023-03-23T11:28:55;8.23;;;2.90;;
21202;SDS011;10759;51.982;9.232;2023-03-23T11:31:34;4.65;;;2.72;;
21202;SDS011;10759;51.982;9.232;2023-03-23T11:34:02;4.50;;;2.80;;
21202;SDS011;10759;51.982;9.232;2023-03-23T11:36:31;10.63;;;2.53;;
21202;SDS011;10759;51.982;9.232;2023-03-23T11:39:01;5.63;;;2.58;;
21202;SDS011;10759;51.982;9.232;2023-03-23T11:41:34;4.07;;;1.88;;
21202;SDS011;10759;51.982;9.232;2023-03-23T11:44:09;8.05;;;2.45;;
21202;SDS011;10759;51.982;9.232;2023-03-23T11:46:44;5.22;;;2.60;;
21202;SDS011;10759;51.982;9.232;2023-03-23T11:49:26;7.50;;;2.97;;
21202;SDS011;10759;51.982;9.232;2023-03-23T11:52:01;4.75;;;2.50;;
21202;SDS011;10759;51.982;9.232;2023-03-23T11:54:36;5.28;;;2.53;;
21202;SDS011;10759;51.982;9.232;2023-03-23T11:57:07;10.00;;;2.78;;
21202;SDS011;10759;51.982;9.232;2023-03-23T11:59:38;6.33;;;2.33;;
21202;SDS011;10759;51.982;9.232;2023-03-23T12:02:12;5.65;;;2.35;;
21202;SDS011;10759;51.982;9.232;2023-03-23T12:04:56;6.18;;;2.70;;
21202;SDS011;10759;51.982;9.232;2023-03-23T12:07:36;5.95;;;2.75;;
21202;SDS011;10759;51.982;9.232;2023-03-23T12:10:21;6.45;;;2.92;;
21202;SDS011;10759;51.982;9.232;2023-03-23T12:12:57;2.30;;;1.63;;
21202;SDS011;10759;51.982;9.232;2023-03-23T12:15:34;3.80;;;1.83;;
21202;SDS011;10759;51.982;9.232;2023-03-23T12:18:12;2.25;;;1.58;;
21202;SDS011;10759;51.982;9.232;2023-03-23T12:20:48;2.60;;;1.65;;
21202;SDS011;10759;51.982;9.232;2023-03-23T12:28:53;1.98;;;1.40;;
21202;SDS011;10759;51.982;9.232;2023-03-23T12:31:54;2.87;;;1.83;;
21202;SDS011;10759;51.982;9.232;2023-03-23T12:34:32;3.03;;;1.77;;
21202;SDS011;10759;51.982;9.232;2023-03-23T12:37:13;1.48;;;1.15;;
21202;SDS011;10759;51.982;9.232;2023-03-23T12:42:44;2.25;;;1.20;;
21202;SDS011;10759;51.982;9.232;2023-03-23T12:45:19;2.95;;;1.58;;
21202;SDS011;10759;51.982;9.232;2023-03-23T12:47:55;2.03;;;1.45;;
21202;SDS011;10759;51.982;9.232;2023-03-23T12:50:27;3.03;;;1.75;;
21202;SDS011;10759;51.982;9.232;2023-03-23T12:52:59;3.83;;;2.50;;
21202;SDS011;10759;51.982;9.232;2023-03-23T12:55:32;2.72;;;2.45;;
21202;SDS011;10759;51.982;9.232;2023-03-23T12:58:03;2.42;;;1.90;;
21202;SDS011;10759;51.982;9.232;2023-03-23T13:00:34;1.65;;;0.90;;
21202;SDS011;10759;51.982;9.232;2023-03-23T13:03:22;4.03;;;1.83;;
21202;SDS011;10759;51.982;9.232;2023-03-23T13:05:57;1.45;;;1.30;;
21202;SDS011;10759;51.982;9.232;2023-03-23T13:08:30;1.42;;;1.10;;
21202;SDS011;10759;51.982;9.232;2023-03-23T13:11:01;0.95;;;0.82;;
21202;SDS011;10759;51.982;9.232;2023-03-23T13:13:40;3.22;;;1.00;;
21202;SDS011;10759;51.982;9.232;2023-03-23T13:16:12;3.80;;;1.10;;
21202;SDS011;10759;51.982;9.232;2023-03-23T13:18:53;1.60;;;1.00;;
21202;SDS011;10759;51.982;9.232;2023-03-23T13:21:27;1.48;;;1.10;;
21202;SDS011;10759;51.982;9.232;2023-03-23T13:23:58;1.23;;;0.90;;
21202;SDS011;10759;51.982;9.232;2023-03-23T13:26:28;1.30;;;0.80;;
21202;SDS011;10759;51.982;9.232;2023-03-23T13:28:57;1.05;;;0.95;;
21202;SDS011;10759;51.982;9.232;2023-03-23T13:31:27;1.85;;;1.20;;
21202;SDS011;10759;51.982;9.232;2023-03-23T13:34:01;2.35;;;1.30;;
21202;SDS011;10759;51.982;9.232;2023-03-23T13:36:33;1.40;;;1.13;;
21202;SDS011;10759;51.982;9.232;2023-03-23T13:39:05;1.85;;;1.05;;
21202;SDS011;10759;51.982;9.232;2023-03-23T13:44:15;1.60;;;1.27;;
21202;SDS011;10759;51.982;9.232;2023-03-23T13:46:53;2.92;;;1.10;;
21202;SDS011;10759;51.982;9.232;2023-03-23T13:49:23;2.22;;;1.35;;
21202;SDS011;10759;51.982;9.232;2023-03-23T13:52:05;2.55;;;1.33;;
21202;SDS011;10759;51.982;9.232;2023-03-23T13:54:42;1.90;;;1.33;;
21202;SDS011;10759;51.982;9.232;2023-03-23T13:57:23;2.35;;;1.52;;
21202;SDS011;10759;51.982;9.232;2023-03-23T13:59:57;4.13;;;1.73;;
21202;SDS011;10759;51.982;9.232;2023-03-23T14:02:30;3.40;;;1.63;;
21202;SDS011;10759;51.982;9.232;2023-03-23T14:07:59;2.83;;;1.40;;
21202;SDS011;10759;51.982;9.232;2023-03-23T14:10:33;1.63;;;1.40;;
21202;SDS011;10759;51.982;9.232;2023-03-23T14:13:03;1.65;;;1.20;;
21202;SDS011;10759;51.982;9.232;2023-03-23T14:15:42;2.03;;;1.45;;
21202;SDS011;10759;51.982;9.232;2023-03-23T14:18:14;2.88;;;1.70;;
21202;SDS011;10759;51.982;9.232;2023-03-23T14:20:45;1.65;;;1.55;;
21202;SDS011;10759;51.982;9.232;2023-03-23T14:23:16;2.58;;;1.67;;
21202;SDS011;10759;51.982;9.232;2023-03-23T14:25:53;3.08;;;1.65;;
21202;SDS011;10759;51.982;9.232;2023-03-23T14:28:22;4.05;;;2.22;;
21202;SDS011;10759;51.982;9.232;2023-03-23T14:30:51;2.13;;;1.63;;
21202;SDS011;10759;51.982;9.232;2023-03-23T14:33:19;3.53;;;1.90;;
21202;SDS011;10759;51.982;9.232;2023-03-23T14:35:48;3.65;;;1.92;;
21202;SDS011;10759;51.982;9.232;2023-03-23T14:38:16;3.30;;;2.38;;
21202;SDS011;10759;51.982;9.232;2023-03-23T14:40:46;3.50;;;2.33;;
21202;SDS011;10759;51.982;9.232;2023-03-23T14:43:14;2.38;;;2.17;;
21202;SDS011;10759;51.982;9.232;2023-03-23T14:45:43;2.80;;;2.30;;
21202;SDS011;10759;51.982;9.232;2023-03-23T14:48:12;2.80;;;2.47;;
21202;SDS011;10759;51.982;9.232;2023-03-23T14:53:18;4.95;;;2.67;;
21202;SDS011;10759;51.982;9.232;2023-03-23T14:55:48;4.78;;;2.63;;
21202;SDS011;10759;51.982;9.232;2023-03-23T14:58:16;2.03;;;1.92;;
21202;SDS011;10759;51.982;9.232;2023-03-23T15:00:45;2.60;;;2.25;;
21202;SDS011;10759;51.982;9.232;2023-03-23T15:03:16;2.40;;;2.20;;
21202;SDS011;10759;51.982;9.232;2023-03-23T15:05:45;2.40;;;2.10;;
21202;SDS011;10759;51.982;9.232;2023-03-23T15:08:15;3.45;;;2.55;;
21202;SDS011;10759;51.982;9.232;2023-03-23T15:10:51;4.55;;;2.50;;
21202;SDS011;10759;51.982;9.232;2023-03-23T15:13:20;4.45;;;2.33;;
21202;SDS011;10759;51.982;9.232;2023-03-23T15:15:47;2.80;;;2.30;;
21202;SDS011;10759;51.982;9.232;2023-03-23T15:18:25;2.72;;;2.53;;
21202;SDS011;10759;51.982;9.232;2023-03-23T15:20:56;3.40;;;3.05;;
21202;SDS011;10759;51.982;9.232;2023-03-23T15:23:27;4.05;;;3.13;;
21202;SDS011;10759;51.982;9.232;2023-03-23T15:25:55;4.25;;;3.85;;
21202;SDS011;10759;51.982;9.232;2023-03-23T15:28:28;3.22;;;2.90;;
21202;SDS011;10759;51.982;9.232;2023-03-23T15:30:58;3.58;;;3.33;;
21202;SDS011;10759;51.982;9.232;2023-03-23T15:33:33;3.38;;;3.08;;
21202;SDS011;10759;51.982;9.232;2023-03-23T15:36:04;3.70;;;3.40;;
21202;SDS011;10759;51.982;9.232;2023-03-23T15:38:35;5.38;;;3.38;;
21202;SDS011;10759;51.982;9.232;2023-03-23T15:41:03;3.22;;;2.75;;
21202;SDS011;10759;51.982;9.232;2023-03-23T15:43:32;3.63;;;2.55;;
21202;SDS011;10759;51.982;9.232;2023-03-23T15:46:01;6.82;;;4.40;;
21202;SDS011;10759;51.982;9.232;2023-03-23T15:48:29;11.13;;;10.00;;